Time;durP1;ratioP1;P1;durP2;ratioP2;P2;SDS_P1;SDS_P2;PMS_P1;PMS_P2;Temp;Humidity;BMP_temperature;BMP_pressure;BME280_temperature;BME280_humidity;BME280_pressure;Samples;Min_cycle;Max_cycle;Signal;HPM_P1;HPM_P2
2022/10/19 00:00:00;;;;;;;0.20;0.13;;;;;;;;;;5035854;28;20048;-58
2022/10/19 00:02:26;;;;;;;0.40;0.20;;;;;;;;;;5035901;28;20041;-58
2022/10/19 00:04:52;;;;;;;0.40;0.22;;;;;;;;;;5037783;28;20085;-58
2022/10/19 00:07:18;;;;;;;0.45;0.30;;;;;;;;;;5036486;28;20053;-58
2022/10/19 00:09:44;;;;;;;0.13;0.10;;;;;;;;;;5038499;28;20041;-58
2022/10/19 00:12:11;;;;;;;0.38;0.30;;;;;;;;;;5037962;28;20091;-58
2022/10/19 00:14:37;;;;;;;0.68;0.20;;;;;;;;;;5036875;28;20486;-58
2022/10/19 00:17:03;;;;;;;0.65;0.30;;;;;;;;;;5036310;28;20057;-58
2022/10/19 00:19:29;;;;;;;0.30;0.20;;;;;;;;;;5036444;28;20083;-58
2022/10/19 00:21:55;;;;;;;0.73;0.13;;;;;;;;;;5037189;28;20060;-58
2022/10/19 00:24:21;;;;;;;0.10;0.10;;;;;;;;;;5032023;28;20055;-58
2022/10/19 00:26:47;;;;;;;0.43;0.30;;;;;;;;;;5035156;28;20041;-58
2022/10/19 00:29:14;;;;;;;0.50;0.20;;;;;;;;;;5032945;28;20093;-58
2022/10/19 00:31:40;;;;;;;1.10;0.30;;;;;;;;;;5036131;28;20613;-58
2022/10/19 00:34:06;;;;;;;0.10;0.10;;;;;;;;;;5034529;28;20045;-58
2022/10/19 00:36:34;;;;;;;0.20;0.10;;;;;;;;;;5039206;28;20076;-59
2022/10/19 00:39:00;;;;;;;0.10;0.10;;;;;;;;;;5037622;28;20052;-58
2022/10/19 00:41:28;;;;;;;0.15;0.15;;;;;;;;;;5030567;28;20056;-58
2022/10/19 00:43:54;;;;;;;0.40;0.20;;;;;;;;;;5034434;28;20041;-58
2022/10/19 00:46:20;;;;;;;0.20;0.03;;;;;;;;;;5034947;28;20037;-58
2022/10/19 00:48:47;;;;;;;0.17;0.17;;;;;;;;;;5031856;28;20094;-58
2022/10/19 00:51:13;;;;;;;1.02;0.30;;;;;;;;;;5033444;28;20527;-58
2022/10/19 00:53:40;;;;;;;0.30;0.10;;;;;;;;;;5032819;28;20057;-58
2022/10/19 00:56:08;;;;;;;0.45;0.20;;;;;;;;;;5038574;28;20068;-58
2022/10/19 00:58:34;;;;;;;0.57;0.20;;;;;;;;;;5034558;28;20092;-58
2022/10/19 01:01:01;;;;;;;0.10;0.10;;;;;;;;;;5036963;28;20392;-58
2022/10/19 01:03:27;;;;;;;0.20;0.00;;;;;;;;;;5032306;28;20044;-58
2022/10/19 01:05:54;;;;;;;0.10;0.10;;;;;;;;;;5033107;28;20056;-59
2022/10/19 01:08:20;;;;;;;2.28;0.43;;;;;;;;;;5035310;28;20088;-59
2022/10/19 01:11:06;;;;;;;0.30;0.30;;;;;;;;;;5035836;28;20683;-59
2022/10/19 01:13:56;;;;;;;0.13;0.10;;;;;;;;;;5025541;28;20049;-59
2022/10/19 01:16:28;;;;;;;0.20;0.00;;;;;;;;;;5034765;28;20964;-58
2022/10/19 01:18:59;;;;;;;0.00;0.00;;;;;;;;;;5035310;28;20037;-58
2022/10/19 01:21:26;;;;;;;0.25;0.10;;;;;;;;;;5031217;28;20516;-58
2022/10/19 01:24:04;;;;;;;0.20;0.10;;;;;;;;;;5049536;28;20439;-57
2022/10/19 01:26:53;;;;;;;0.10;0.08;;;;;;;;;;5035936;28;20052;-58
2022/10/19 01:29:43;;;;;;;0.20;0.10;;;;;;;;;;5032067;28;20045;-58
2022/10/19 01:32:12;;;;;;;0.30;0.10;;;;;;;;;;5024482;28;20156;-58
2022/10/19 01:34:43;;;;;;;0.32;0.20;;;;;;;;;;5034495;28;20045;-57
2022/10/19 01:37:12;;;;;;;0.00;0.00;;;;;;;;;;5030936;28;20049;-58
2022/10/19 01:39:44;;;;;;;0.32;0.20;;;;;;;;;;5034865;28;20044;-58
2022/10/19 01:42:10;;;;;;;0.47;0.30;;;;;;;;;;5033943;28;20400;-58
2022/10/19 01:44:47;;;;;;;1.85;0.10;;;;;;;;;;5035868;28;20045;-57
2022/10/19 01:47:33;;;;;;;0.22;0.17;;;;;;;;;;5032109;28;20132;-58
2022/10/19 01:50:18;;;;;;;0.35;0.15;;;;;;;;;;5037815;28;20049;-58
2022/10/19 01:52:44;;;;;;;0.52;0.10;;;;;;;;;;5037337;28;20685;-58
2022/10/19 01:55:13;;;;;;;0.35;0.10;;;;;;;;;;5035842;28;20045;-58
2022/10/19 01:57:45;;;;;;;1.65;0.20;;;;;;;;;;5037709;28;20048;-58
2022/10/19 02:00:13;;;;;;;0.98;0.15;;;;;;;;;;5036561;28;20045;-58
2022/10/19 02:02:42;;;;;;;0.15;0.15;;;;;;;;;;5034486;28;20068;-58
2022/10/19 02:05:08;;;;;;;0.50;0.20;;;;;;;;;;5035235;28;20056;-58
2022/10/19 02:07:34;;;;;;;0.15;0.10;;;;;;;;;;5035199;28;20049;-58
2022/10/19 02:10:00;;;;;;;0.05;0.05;;;;;;;;;;5034395;28;20450;-58
2022/10/19 02:12:28;;;;;;;0.13;0.10;;;;;;;;;;5035652;28;20491;-58
2022/10/19 02:14:56;;;;;;;0.40;0.15;;;;;;;;;;5035808;28;20129;-58
2022/10/19 02:17:28;;;;;;;0.10;0.00;;;;;;;;;;5035152;28;20053;-58
2022/10/19 02:19:54;;;;;;;0.10;0.10;;;;;;;;;;5029229;28;20038;-59
2022/10/19 02:22:21;;;;;;;0.10;0.10;;;;;;;;;;5030460;28;20135;-58
2022/10/19 02:24:47;;;;;;;0.65;0.13;;;;;;;;;;5033557;28;20053;-58
2022/10/19 02:27:13;;;;;;;0.10;0.10;;;;;;;;;;5030432;28;20053;-58
2022/10/19 02:29:39;;;;;;;0.13;0.10;;;;;;;;;;5029453;28;20431;-58
2022/10/19 02:32:05;;;;;;;0.50;0.20;;;;;;;;;;5034284;28;20056;-58
2022/10/19 02:34:32;;;;;;;0.45;0.10;;;;;;;;;;5030776;28;20041;-58
2022/10/19 02:36:58;;;;;;;0.90;0.10;;;;;;;;;;5034330;28;20049;-58
2022/10/19 02:39:24;;;;;;;1.35;0.30;;;;;;;;;;5031592;28;20048;-58
2022/10/19 02:41:59;;;;;;;0.50;0.10;;;;;;;;;;5033404;28;20037;-58
2022/10/19 02:44:46;;;;;;;0.17;0.10;;;;;;;;;;5035391;28;20241;-58
2022/10/19 02:47:35;;;;;;;0.35;0.10;;;;;;;;;;5039903;28;20346;-58
2022/10/19 02:50:04;;;;;;;0.28;0.10;;;;;;;;;;5031402;28;20064;-58
2022/10/19 02:52:30;;;;;;;0.10;0.10;;;;;;;;;;5038727;28;20084;-59
2022/10/19 02:54:56;;;;;;;1.35;0.32;;;;;;;;;;5037714;28;20081;-58
2022/10/19 02:57:23;;;;;;;1.27;0.10;;;;;;;;;;5038317;28;20049;-58
2022/10/19 02:59:49;;;;;;;0.50;0.17;;;;;;;;;;5037463;28;20118;-58
2022/10/19 03:02:16;;;;;;;0.10;0.10;;;;;;;;;;5036365;28;20511;-58
2022/10/19 03:04:43;;;;;;;1.08;0.17;;;;;;;;;;5035307;28;20511;-58
2022/10/19 03:07:09;;;;;;;1.40;0.20;;;;;;;;;;5036635;28;20116;-58
2022/10/19 03:09:35;;;;;;;0.25;0.10;;;;;;;;;;5039437;28;20124;-58
2022/10/19 03:12:01;;;;;;;2.25;0.20;;;;;;;;;;5032835;28;20127;-58
2022/10/19 03:14:27;;;;;;;0.52;0.17;;;;;;;;;;5036381;28;20044;-58
2022/10/19 03:16:53;;;;;;;0.60;0.20;;;;;;;;;;5041636;28;20806;-58
2022/10/19 03:19:19;;;;;;;0.75;0.45;;;;;;;;;;5035097;28;20044;-58
2022/10/19 03:21:45;;;;;;;0.95;0.10;;;;;;;;;;5040816;28;20061;-58
2022/10/19 03:24:11;;;;;;;1.17;0.30;;;;;;;;;;5043848;28;20037;-58
2022/10/19 03:26:37;;;;;;;0.00;0.00;;;;;;;;;;5038990;28;20045;-58
2022/10/19 03:29:04;;;;;;;0.40;0.20;;;;;;;;;;5037502;28;20037;-59
2022/10/19 03:31:30;;;;;;;0.65;0.20;;;;;;;;;;5056400;28;20050;-58
2022/10/19 03:33:56;;;;;;;0.13;0.13;;;;;;;;;;5036786;28;20045;-58
2022/10/19 03:36:23;;;;;;;0.50;0.10;;;;;;;;;;5041523;28;20048;-58
2022/10/19 03:38:49;;;;;;;0.73;0.20;;;;;;;;;;5038844;28;20044;-57
2022/10/19 03:41:15;;;;;;;0.20;0.20;;;;;;;;;;5036469;28;20053;-58
2022/10/19 03:43:41;;;;;;;0.17;0.10;;;;;;;;;;5039777;28;20099;-58
2022/10/19 03:46:08;;;;;;;0.08;0.08;;;;;;;;;;5036711;28;20143;-58
2022/10/19 03:48:34;;;;;;;0.63;0.20;;;;;;;;;;5040816;28;20133;-58
2022/10/19 03:51:01;;;;;;;0.10;0.10;;;;;;;;;;5039513;28;20077;-57
2022/10/19 03:53:30;;;;;;;0.28;0.20;;;;;;;;;;5037958;28;20049;-58
2022/10/19 03:56:06;;;;;;;0.98;0.30;;;;;;;;;;5038101;28;20120;-58
2022/10/19 03:58:33;;;;;;;1.42;0.22;;;;;;;;;;5036929;28;20041;-58
2022/10/19 04:00:59;;;;;;;0.45;0.10;;;;;;;;;;5035573;28;20080;-59
2022/10/19 04:03:25;;;;;;;0.32;0.10;;;;;;;;;;5042632;28;20037;-58
2022/10/19 04:05:52;;;;;;;0.22;0.22;;;;;;;;;;5041720;28;20053;-58
2022/10/19 04:08:18;;;;;;;0.28;0.13;;;;;;;;;;5035452;28;20041;-58
2022/10/19 04:10:44;;;;;;;5.03;1.27;;;;;;;;;;5043000;28;20041;-58
2022/10/19 04:13:10;;;;;;;0.32;0.20;;;;;;;;;;5035843;28;20041;-58
2022/10/19 04:15:36;;;;;;;0.50;0.17;;;;;;;;;;5037135;28;20439;-58
2022/10/19 04:18:02;;;;;;;0.30;0.13;;;;;;;;;;5038147;28;20491;-58
2022/10/19 04:20:28;;;;;;;0.10;0.10;;;;;;;;;;5040039;28;20040;-58
2022/10/19 04:22:54;;;;;;;0.85;0.30;;;;;;;;;;5042527;28;20044;-58
2022/10/19 04:25:21;;;;;;;0.68;0.00;;;;;;;;;;5037464;28;20041;-58
2022/10/19 04:27:46;;;;;;;0.50;0.20;;;;;;;;;;5037795;28;20045;-58
2022/10/19 04:30:12;;;;;;;0.85;0.35;;;;;;;;;;5035915;28;20527;-58
2022/10/19 04:32:38;;;;;;;0.20;0.20;;;;;;;;;;5040443;28;20072;-58
2022/10/19 04:35:05;;;;;;;0.52;0.13;;;;;;;;;;5040495;28;20044;-58
2022/10/19 04:37:31;;;;;;;0.22;0.17;;;;;;;;;;5036891;28;20140;-58
2022/10/19 04:39:57;;;;;;;0.47;0.20;;;;;;;;;;5033800;28;20131;-58
2022/10/19 04:42:23;;;;;;;1.58;0.13;;;;;;;;;;5038444;28;20045;-58
2022/10/19 04:44:49;;;;;;;0.30;0.17;;;;;;;;;;5033379;28;20041;-59
2022/10/19 04:47:15;;;;;;;0.20;0.13;;;;;;;;;;5038201;28;20056;-58
2022/10/19 04:49:41;;;;;;;0.52;0.30;;;;;;;;;;5035267;28;20400;-58
2022/10/19 04:52:07;;;;;;;0.95;0.17;;;;;;;;;;5036225;28;20037;-59
2022/10/19 04:54:33;;;;;;;0.17;0.17;;;;;;;;;;5037925;28;20052;-58
2022/10/19 04:56:59;;;;;;;0.13;0.10;;;;;;;;;;5038003;28;20045;-58
2022/10/19 04:59:25;;;;;;;1.75;0.50;;;;;;;;;;5035896;28;20775;-59
2022/10/19 05:01:51;;;;;;;0.30;0.20;;;;;;;;;;5035468;28;20136;-58
2022/10/19 05:04:17;;;;;;;0.45;0.17;;;;;;;;;;5037007;28;20148;-58
2022/10/19 05:06:43;;;;;;;1.55;0.20;;;;;;;;;;5036184;28;20050;-58
2022/10/19 05:09:09;;;;;;;0.20;0.17;;;;;;;;;;5034701;28;20055;-58
2022/10/19 05:11:35;;;;;;;0.63;0.20;;;;;;;;;;5035928;28;20752;-58
2022/10/19 05:14:01;;;;;;;0.60;0.20;;;;;;;;;;5037209;28;20037;-58
2022/10/19 05:16:27;;;;;;;0.43;0.20;;;;;;;;;;5042333;28;20047;-58
2022/10/19 05:19:00;;;;;;;0.20;0.10;;;;;;;;;;5039905;28;20044;-58
2022/10/19 05:21:27;;;;;;;1.50;0.43;;;;;;;;;;5037896;28;20136;-58
2022/10/19 05:23:54;;;;;;;0.88;0.20;;;;;;;;;;5036581;28;20081;-58
2022/10/19 05:26:24;;;;;;;0.52;0.17;;;;;;;;;;5035497;28;20107;-58
2022/10/19 05:28:55;;;;;;;0.32;0.05;;;;;;;;;;5036725;28;20036;-57
2022/10/19 05:31:21;;;;;;;0.70;0.20;;;;;;;;;;5033709;28;20037;-58
2022/10/19 05:33:47;;;;;;;0.50;0.30;;;;;;;;;;5038905;28;20044;-58
2022/10/19 05:36:25;;;;;;;0.63;0.00;;;;;;;;;;5036213;28;21107;-58
2022/10/19 05:38:51;;;;;;;0.35;0.17;;;;;;;;;;5037675;28;20060;-58
2022/10/19 05:41:17;;;;;;;0.38;0.10;;;;;;;;;;5032013;28;20075;-58
2022/10/19 05:43:44;;;;;;;2.55;0.40;;;;;;;;;;5038574;28;20045;-59
2022/10/19 05:46:16;;;;;;;0.05;0.05;;;;;;;;;;5038349;28;20079;-58
2022/10/19 05:48:42;;;;;;;;;;;;;;;;;;5039435;28;20052;-58
2022/10/19 05:51:10;;;;;;;0.68;0.15;;;;;;;;;;5039431;28;20368;-58
2022/10/19 05:53:36;;;;;;;0.63;0.17;;;;;;;;;;5039896;28;20064;-58
2022/10/19 05:56:04;;;;;;;4.20;0.57;;;;;;;;;;5039014;28;20084;-58
2022/10/19 05:58:30;;;;;;;0.50;0.17;;;;;;;;;;5034889;28;20045;-58
2022/10/19 06:00:57;;;;;;;0.10;0.10;;;;;;;;;;5034987;28;20037;-58
2022/10/19 06:03:24;;;;;;;1.08;0.10;;;;;;;;;;5035383;28;20468;-58
2022/10/19 06:05:50;;;;;;;0.30;0.30;;;;;;;;;;5035884;28;20057;-58
2022/10/19 06:08:16;;;;;;;0.55;0.20;;;;;;;;;;5035470;28;20055;-58
2022/10/19 06:10:43;;;;;;;0.47;0.30;;;;;;;;;;5036488;28;20041;-58
2022/10/19 06:13:09;;;;;;;0.10;0.00;;;;;;;;;;5038049;28;20055;-58
2022/10/19 06:15:35;;;;;;;0.60;0.20;;;;;;;;;;5038035;28;20041;-58
2022/10/19 06:18:04;;;;;;;0.20;0.20;;;;;;;;;;5040667;28;20041;-58
2022/10/19 06:20:30;;;;;;;0.65;0.20;;;;;;;;;;5040798;28;20499;-58
2022/10/19 06:22:56;;;;;;;0.40;0.10;;;;;;;;;;5038331;28;20033;-58
2022/10/19 06:25:22;;;;;;;1.65;0.28;;;;;;;;;;5039025;28;20515;-58
2022/10/19 06:27:48;;;;;;;0.43;0.20;;;;;;;;;;5038331;28;20040;-58
2022/10/19 06:30:14;;;;;;;0.45;0.13;;;;;;;;;;5040365;28;20056;-58
2022/10/19 06:32:40;;;;;;;0.10;0.03;;;;;;;;;;5040698;28;20041;-58
2022/10/19 06:35:06;;;;;;;0.40;0.30;;;;;;;;;;5038005;28;20087;-58
2022/10/19 06:37:32;;;;;;;0.43;0.20;;;;;;;;;;5039747;28;20045;-58
2022/10/19 06:39:58;;;;;;;0.20;0.13;;;;;;;;;;5036852;28;20053;-58
2022/10/19 06:42:24;;;;;;;0.60;0.13;;;;;;;;;;5036423;28;20498;-57
2022/10/19 06:44:50;;;;;;;0.10;0.10;;;;;;;;;;5040676;28;20037;-58
2022/10/19 06:47:16;;;;;;;0.55;0.20;;;;;;;;;;5037629;28;20065;-58
2022/10/19 06:49:43;;;;;;;1.27;0.20;;;;;;;;;;5041894;28;20407;-58
2022/10/19 06:52:09;;;;;;;0.10;0.05;;;;;;;;;;5043423;28;20060;-58
2022/10/19 06:54:35;;;;;;;0.35;0.20;;;;;;;;;;5042667;28;20559;-58
2022/10/19 06:57:01;;;;;;;0.73;0.20;;;;;;;;;;5038170;28;20085;-58
2022/10/19 06:59:27;;;;;;;0.10;0.10;;;;;;;;;;5041955;28;20047;-58
2022/10/19 07:01:53;;;;;;;0.68;0.10;;;;;;;;;;5040768;28;20037;-58
2022/10/19 07:04:19;;;;;;;0.88;0.20;;;;;;;;;;5046299;28;20749;-57
2022/10/19 07:06:45;;;;;;;0.32;0.20;;;;;;;;;;5045263;28;20099;-60
2022/10/19 07:09:11;;;;;;;0.13;0.10;;;;;;;;;;5043787;28;20048;-58
2022/10/19 07:11:37;;;;;;;0.20;0.00;;;;;;;;;;5045280;28;20732;-59
2022/10/19 07:14:03;;;;;;;0.88;0.30;;;;;;;;;;5046599;28;20037;-58
2022/10/19 07:16:29;;;;;;;0.50;0.10;;;;;;;;;;5040110;28;20115;-58
2022/10/19 07:18:55;;;;;;;0.10;0.05;;;;;;;;;;5040508;28;20041;-58
2022/10/19 07:21:22;;;;;;;0.40;0.10;;;;;;;;;;5046000;28;20139;-59
2022/10/19 07:23:48;;;;;;;0.10;0.05;;;;;;;;;;5040419;28;20033;-57
2022/10/19 07:26:17;;;;;;;0.77;0.05;;;;;;;;;;5043211;28;20404;-58
2022/10/19 07:28:44;;;;;;;0.20;0.03;;;;;;;;;;5043606;28;20040;-58
2022/10/19 07:31:12;;;;;;;0.50;0.10;;;;;;;;;;5040882;28;20045;-56
2022/10/19 07:33:39;;;;;;;0.60;0.20;;;;;;;;;;5040244;28;20505;-56
2022/10/19 07:36:07;;;;;;;1.10;0.10;;;;;;;;;;5035545;28;20124;-58
2022/10/19 07:38:34;;;;;;;0.52;0.30;;;;;;;;;;5042642;28;20044;-58
2022/10/19 07:41:13;;;;;;;0.47;0.10;;;;;;;;;;5046491;28;20553;-58
2022/10/19 07:43:40;;;;;;;0.82;0.22;;;;;;;;;;5045562;28;20040;-58
2022/10/19 07:46:07;;;;;;;0.85;0.30;;;;;;;;;;5039381;28;20080;-58
2022/10/19 07:48:34;;;;;;;0.17;0.17;;;;;;;;;;5044451;28;20411;-58
2022/10/19 07:51:00;;;;;;;0.73;0.20;;;;;;;;;;5059556;28;20044;-57
2022/10/19 07:53:26;;;;;;;1.17;0.20;;;;;;;;;;5041102;28;20049;-58
2022/10/19 07:55:52;;;;;;;0.10;0.10;;;;;;;;;;5046060;28;20040;-58
2022/10/19 07:58:18;;;;;;;0.45;0.20;;;;;;;;;;5045407;28;20045;-58
2022/10/19 08:00:45;;;;;;;0.20;0.05;;;;;;;;;;5041653;28;20045;-58
2022/10/19 08:03:11;;;;;;;1.30;0.55;;;;;;;;;;5039828;28;20037;-58
2022/10/19 08:05:37;;;;;;;1.00;0.15;;;;;;;;;;5043906;28;20053;-58
2022/10/19 08:08:03;;;;;;;2.92;0.25;;;;;;;;;;5039457;28;20049;-58
2022/10/19 08:10:30;;;;;;;0.95;0.30;;;;;;;;;;5044664;28;20048;-59
2022/10/19 08:12:56;;;;;;;1.42;0.30;;;;;;;;;;5046371;28;20605;-58
2022/10/19 08:15:22;;;;;;;0.82;0.30;;;;;;;;;;5037679;28;20411;-58
2022/10/19 08:17:47;;;;;;;0.90;0.20;;;;;;;;;;5038990;28;20048;-57
2022/10/19 08:20:14;;;;;;;1.38;0.50;;;;;;;;;;5046536;28;20095;-59
2022/10/19 08:22:40;;;;;;;2.40;0.40;;;;;;;;;;5038073;28;20090;-60
2022/10/19 08:25:06;;;;;;;;;;;;;;;;;;5046257;28;19932;-57
2022/10/19 08:27:32;;;;;;;;;;;;;;;;;;5042723;28;20172;-58
2022/10/19 08:29:58;;;;;;;1.65;0.40;;;;;;;;;;5035210;28;19939;-59
2022/10/19 08:32:24;;;;;;;0.32;0.22;;;;;;;;;;5032859;28;20064;-58
2022/10/19 08:34:50;;;;;;;1.30;0.50;;;;;;;;;;5039873;28;20480;-58
2022/10/19 08:37:16;;;;;;;6.43;0.60;;;;;;;;;;5032872;28;20052;-59
2022/10/19 08:39:42;;;;;;;3.67;0.90;;;;;;;;;;5044054;28;20086;-59
2022/10/19 08:42:13;;;;;;;1.08;0.57;;;;;;;;;;5045197;28;20466;-58
2022/10/19 08:44:39;;;;;;;1.10;0.30;;;;;;;;;;5043567;28;20064;-59
2022/10/19 08:47:08;;;;;;;1.48;0.45;;;;;;;;;;5046134;28;20398;-58
2022/10/19 08:49:35;;;;;;;0.80;0.30;;;;;;;;;;5034825;28;20458;-59
2022/10/19 08:52:04;;;;;;;1.75;0.50;;;;;;;;;;5041215;28;20116;-58
2022/10/19 08:54:35;;;;;;;1.40;0.45;;;;;;;;;;5031490;28;20049;-58
2022/10/19 08:57:01;;;;;;;1.13;0.30;;;;;;;;;;5032289;28;20064;-59
2022/10/19 08:59:33;;;;;;;2.00;0.65;;;;;;;;;;5035427;28;20037;-59
2022/10/19 09:01:59;;;;;;;1.55;0.60;;;;;;;;;;5035983;28;20179;-59
2022/10/19 09:04:25;;;;;;;3.53;1.17;;;;;;;;;;5036130;28;20053;-59
2022/10/19 09:07:07;;;;;;;2.90;0.55;;;;;;;;;;5039160;28;20037;-59
2022/10/19 09:09:35;;;;;;;3.33;0.65;;;;;;;;;;5037362;28;20048;-58
2022/10/19 09:12:06;;;;;;;3.40;0.70;;;;;;;;;;5035868;28;20393;-59
2022/10/19 09:14:32;;;;;;;3.25;0.90;;;;;;;;;;5035271;28;20335;-59
2022/10/19 09:17:02;;;;;;;1.05;0.30;;;;;;;;;;5043210;28;20053;-57
2022/10/19 09:19:30;;;;;;;2.50;0.70;;;;;;;;;;5039217;28;20052;-57
2022/10/19 09:21:57;;;;;;;1.05;0.30;;;;;;;;;;5033491;28;20466;-57
2022/10/19 09:24:23;;;;;;;0.75;0.20;;;;;;;;;;5028515;28;20042;-58
2022/10/19 09:26:52;;;;;;;1.40;0.30;;;;;;;;;;5036831;28;20040;-57
2022/10/19 09:29:21;;;;;;;2.58;0.75;;;;;;;;;;5037470;28;20274;-58
2022/10/19 09:31:48;;;;;;;3.08;0.70;;;;;;;;;;5042841;28;20407;-58
2022/10/19 09:34:21;;;;;;;3.20;1.13;;;;;;;;;;5043798;28;20037;-57
2022/10/19 09:36:52;;;;;;;1.30;0.55;;;;;;;;;;5040142;28;20045;-57
2022/10/19 09:39:18;;;;;;;1.30;0.55;;;;;;;;;;5035285;28;20037;-57
2022/10/19 09:41:55;;;;;;;1.42;0.40;;;;;;;;;;5030903;28;20044;-57
2022/10/19 09:44:22;;;;;;;1.67;0.77;;;;;;;;;;5035129;28;20037;-57
2022/10/19 09:47:01;;;;;;;2.15;0.68;;;;;;;;;;5040810;28;20038;-58
2022/10/19 09:49:47;;;;;;;1.15;0.40;;;;;;;;;;5038535;28;20045;-57
2022/10/19 09:52:28;;;;;;;3.33;0.70;;;;;;;;;;5042647;28;20133;-58
2022/10/19 09:55:06;;;;;;;2.05;0.70;;;;;;;;;;5040794;28;20128;-58
2022/10/19 09:57:32;;;;;;;1.45;0.50;;;;;;;;;;5038191;28;20045;-57
2022/10/19 09:59:58;;;;;;;4.63;0.75;;;;;;;;;;5038751;28;20048;-58
2022/10/19 10:02:29;;;;;;;1.73;0.80;;;;;;;;;;5035410;28;20037;-58
2022/10/19 10:05:02;;;;;;;1.13;0.30;;;;;;;;;;5038414;28;20056;-58
2022/10/19 10:07:32;;;;;;;1.67;0.55;;;;;;;;;;5039880;28;20040;-58
2022/10/19 10:09:59;;;;;;;0.98;0.50;;;;;;;;;;5040903;28;20492;-57
2022/10/19 10:12:25;;;;;;;1.00;0.30;;;;;;;;;;5036899;28;20516;-58
2022/10/19 10:14:51;;;;;;;;;;;;;;;;;;5034915;28;20484;-58
2022/10/19 10:17:17;;;;;;;;;;;;;;;;;;5034400;28;19990;-58
2022/10/19 10:19:43;;;;;;;;;;;;;;;;;;5037275;28;19924;-58
2022/10/19 10:22:09;;;;;;;;;;;;;;;;;;5042940;28;19924;-58
2022/10/19 10:24:35;;;;;;;;;;;;;;;;;;5039846;28;20375;-58
2022/10/19 10:27:01;;;;;;;;;;;;;;;;;;5042894;28;19921;-57
2022/10/19 10:29:27;;;;;;;;;;;;;;;;;;5041008;28;19971;-58
2022/10/19 10:31:53;;;;;;;;;;;;;;;;;;5042280;28;20291;-58
2022/10/19 10:34:19;;;;;;;;;;;;;;;;;;5040177;28;20597;-58
2022/10/19 10:36:44;;;;;;;;;;;;;;;;;;5033755;28;19925;-58
2022/10/19 10:39:10;;;;;;;;;;;;;;;;;;5032641;28;19924;-57
2022/10/19 10:41:36;;;;;;;;;;;;;;;;;;5038201;28;19924;-58
2022/10/19 10:44:05;;;;;;;;;;;;;;;;;;5042932;28;19947;-58
2022/10/19 10:46:31;;;;;;;;;;;;;;;;;;5038178;28;19975;-59
2022/10/19 10:48:57;;;;;;;;;;;;;;;;;;5042536;28;20135;-60
2022/10/19 10:51:23;;;;;;;;;;;;;;;;;;5040218;28;19936;-59
2022/10/19 10:53:49;;;;;;;;;;;;;;;;;;5042790;28;19921;-59
2022/10/19 10:56:14;;;;;;;;;;;;;;;;;;5039562;28;19920;-60
2022/10/19 10:58:42;;;;;;;;;;;;;;;;;;5039635;28;19970;-59
2022/10/19 11:01:08;;;;;;;;;;;;;;;;;;5041970;28;19955;-60
2022/10/19 11:03:34;;;;;;;;;;;;;;;;;;5042153;28;19920;-59
2022/10/19 11:06:00;;;;;;;;;;;;;;;;;;5040270;28;19927;-59
2022/10/19 11:08:25;;;;;;;;;;;;;;;;;;5045845;28;20915;-59
2022/10/19 11:10:51;;;;;;;;;;;;;;;;;;5046060;28;19928;-59
2022/10/19 11:13:17;;;;;;;;;;;;;;;;;;5044251;28;19921;-59
2022/10/19 11:15:43;;;;;;;;;;;;;;;;;;5046025;28;19928;-60
2022/10/19 11:18:09;;;;;;;;;;;;;;;;;;5044834;28;20012;-60
2022/10/19 11:20:35;;;;;;;;;;;;;;;;;;5045064;28;19927;-59
2022/10/19 11:23:01;;;;;;;;;;;;;;;;;;5044745;28;20306;-59
2022/10/19 11:25:27;;;;;;;;;;;;;;;;;;5045361;28;19924;-59
2022/10/19 11:27:53;;;;;;;;;;;;;;;;;;5042051;28;19928;-59
2022/10/19 11:30:19;;;;;;;;;;;;;;;;;;5040679;28;20359;-59
2022/10/19 11:32:44;;;;;;;;;;;;;;;;;;5042236;28;19925;-59
2022/10/19 11:35:10;;;;;;;;;;;;;;;;;;5041495;28;19932;-59
2022/10/19 11:37:36;;;;;;;;;;;;;;;;;;5034578;28;19925;-59
2022/10/19 11:40:02;;;;;;;;;;;;;;;;;;5042379;28;19920;-59
2022/10/19 11:42:28;;;;;;;;;;;;;;;;;;5045371;28;20011;-59
2022/10/19 11:44:54;;;;;;;;;;;;;;;;;;5036125;28;19921;-59
2022/10/19 11:47:20;;;;;;;;;;;;;;;;;;5044805;28;19931;-60
2022/10/19 11:49:46;;;;;;;;;;;;;;;;;;5042167;28;20030;-59
2022/10/19 11:52:12;;;;;;;;;;;;;;;;;;5037133;28;19920;-60
2022/10/19 11:54:38;;;;;;;;;;;;;;;;;;5035422;28;19931;-64
2022/10/19 11:57:04;;;;;;;;;;;;;;;;;;5035828;28;19967;-60
2022/10/19 11:59:29;;;;;;;;;;;;;;;;;;5043236;28;20126;-59
2022/10/19 12:01:55;;;;;;;;;;;;;;;;;;5042269;28;19947;-58
2022/10/19 12:04:21;;;;;;;;;;;;;;;;;;5047752;28;19972;-59
2022/10/19 12:06:47;;;;;;;;;;;;;;;;;;5031590;28;20066;-59
2022/10/19 12:09:13;;;;;;;;;;;;;;;;;;5030858;28;19932;-59
2022/10/19 12:11:39;;;;;;;;;;;;;;;;;;5046166;28;19924;-59
2022/10/19 12:14:05;;;;;;;;;;;;;;;;;;5045774;28;20026;-59
2022/10/19 12:16:31;;;;;;;;;;;;;;;;;;5040148;28;20003;-59
2022/10/19 12:18:57;;;;;;;;;;;;;;;;;;5041546;28;19924;-59
2022/10/19 12:21:23;;;;;;;;;;;;;;;;;;5039846;28;19969;-59
2022/10/19 12:23:49;;;;;;;;;;;;;;;;;;5035159;28;19927;-59
2022/10/19 12:26:15;;;;;;;;;;;;;;;;;;5040211;28;19920;-59
2022/10/19 12:28:42;;;;;;;;;;;;;;;;;;5044905;28;19966;-59
2022/10/19 12:31:07;;;;;;;;;;;;;;;;;;5035210;28;19928;-59
2022/10/19 12:33:33;;;;;;;;;;;;;;;;;;5038020;28;19928;-59
2022/10/19 12:35:59;;;;;;;;;;;;;;;;;;5035015;28;19979;-59
2022/10/19 12:38:25;;;;;;;;;;;;;;;;;;5040966;28;19978;-59
2022/10/19 12:40:51;;;;;;;;;;;;;;;;;;5039606;28;19971;-59
2022/10/19 12:43:17;;;;;;;;;;;;;;;;;;5041456;28;19921;-59
2022/10/19 12:45:43;;;;;;;;;;;;;;;;;;5046483;28;20330;-59
2022/10/19 12:48:13;;;;;;;;;;;;;;;;;;5036887;28;19929;-59
2022/10/19 12:50:39;;;;;;;;;;;;;;;;;;5038900;28;19920;-59
2022/10/19 12:53:05;;;;;;;;;;;;;;;;;;5040344;28;20459;-60
2022/10/19 12:55:33;;;;;;;;;;;;;;;;;;5042395;28;19944;-59
2022/10/19 12:57:59;;;;;;;;;;;;;;;;;;5042757;28;19920;-59
2022/10/19 13:00:25;;;;;;;;;;;;;;;;;;5042033;28;19930;-59
2022/10/19 13:02:51;;;;;;;;;;;;;;;;;;5041980;28;19921;-60
2022/10/19 13:05:17;;;;;;;;;;;;;;;;;;5040992;28;20477;-60
2022/10/19 13:07:43;;;;;;;;;;;;;;;;;;5045334;28;19921;-59
2022/10/19 13:10:09;;;;;;;;;;;;;;;;;;5043099;28;19944;-59
2022/10/19 13:12:34;;;;;;;;;;;;;;;;;;5043551;28;20015;-59
2022/10/19 13:15:00;;;;;;;;;;;;;;;;;;5043653;28;19927;-59
2022/10/19 13:17:26;;;;;;;;;;;;;;;;;;5037167;28;20384;-59
2022/10/19 13:19:53;;;;;;;;;;;;;;;;;;5042991;28;19925;-58
2022/10/19 13:22:19;;;;;;;;;;;;;;;;;;5042008;28;19928;-58
2022/10/19 13:24:44;;;;;;;;;;;;;;;;;;5035360;28;19931;-58
2022/10/19 13:27:10;;;;;;;;;;;;;;;;;;5039067;28;19920;-60
2022/10/19 13:29:39;;;;;;;;;;;;;;;;;;5035725;28;19927;-59
2022/10/19 13:32:05;;;;;;;;;;;;;;;;;;5034205;28;19921;-59
2022/10/19 13:34:31;;;;;;;;;;;;;;;;;;5042010;28;19931;-59
2022/10/19 13:36:57;;;;;;;;;;;;;;;;;;5040616;28;20311;-59
2022/10/19 13:39:23;;;;;;;;;;;;;;;;;;5041048;28;19925;-59
2022/10/19 13:41:49;;;;;;;;;;;;;;;;;;5042263;28;19960;-59
2022/10/19 13:44:15;;;;;;;;;;;;;;;;;;5043737;28;20463;-59
2022/10/19 13:46:41;;;;;;;;;;;;;;;;;;5039233;28;19975;-59
2022/10/19 13:49:07;;;;;;;;;;;;;;;;;;5034035;28;19960;-59
2022/10/19 13:51:33;;;;;;;;;;;;;;;;;;5039023;28;20026;-60
2022/10/19 13:53:59;;;;;;;;;;;;;;;;;;5035254;28;19921;-59
2022/10/19 13:56:25;;;;;;;;;;;;;;;;;;5038461;28;19931;-59
2022/10/19 13:58:51;;;;;;;;;;;;;;;;;;5043862;28;20407;-60
2022/10/19 14:01:17;;;;;;;;;;;;;;;;;;5044591;28;19932;-60
2022/10/19 14:03:42;;;;;;;;;;;;;;;;;;5044338;28;19975;-58
2022/10/19 14:06:08;;;;;;;;;;;;;;;;;;5044730;28;20047;-60
2022/10/19 14:08:34;;;;;;;;;;;;;;;;;;5041572;28;19921;-59
2022/10/19 14:11:00;;;;;;;;;;;;;;;;;;5041496;28;20335;-59
2022/10/19 14:13:26;;;;;;;;;;;;;;;;;;5040639;28;20375;-59
2022/10/19 14:15:52;;;;;;;;;;;;;;;;;;5042741;28;19920;-59
2022/10/19 14:18:22;;;;;;;1.10;0.52;;;;;;;;;;5041911;28;19947;-59
2022/10/19 14:20:48;;;;;;;;;;;;;;;;;;5043673;28;20045;-59
2022/10/19 14:23:14;;;;;;;;;;;;;;;;;;5044082;28;19924;-59
2022/10/19 14:25:40;;;;;;;;;;;;;;;;;;5044215;28;19921;-59
2022/10/19 14:28:06;;;;;;;1.00;0.60;;;;;;;;;;5043419;28;19920;-59
2022/10/19 14:30:34;;;;;;;2.05;0.52;;;;;;;;;;5043990;28;20064;-60
2022/10/19 14:33:01;;;;;;;1.38;0.40;;;;;;;;;;5040112;28;20115;-59
2022/10/19 14:35:29;;;;;;;1.33;0.50;;;;;;;;;;5041621;28;20091;-59
2022/10/19 14:37:56;;;;;;;1.70;0.70;;;;;;;;;;5040854;28;20041;-59
2022/10/19 14:40:28;;;;;;;0.77;0.32;;;;;;;;;;5031128;28;20493;-59
2022/10/19 14:42:55;;;;;;;3.00;0.98;;;;;;;;;;5042203;28;20037;-59
2022/10/19 14:45:22;;;;;;;2.33;0.88;;;;;;;;;;5035936;28;20048;-59
2022/10/19 14:47:58;;;;;;;2.92;0.85;;;;;;;;;;5042683;28;20049;-59
2022/10/19 14:50:26;;;;;;;1.60;0.68;;;;;;;;;;5042416;28;20056;-59
2022/10/19 14:52:57;;;;;;;2.60;1.00;;;;;;;;;;5037745;28;20044;-59
2022/10/19 14:55:23;;;;;;;2.55;1.52;;;;;;;;;;5037452;28;20041;-59
2022/10/19 14:57:51;;;;;;;1.58;1.23;;;;;;;;;;5040956;28;20044;-59
2022/10/19 15:00:19;;;;;;;1.58;0.80;;;;;;;;;;5042767;28;20045;-59
2022/10/19 15:02:47;;;;;;;1.55;0.75;;;;;;;;;;5041208;28;20037;-59
2022/10/19 15:05:19;;;;;;;2.17;0.98;;;;;;;;;;5044256;28;20060;-59
2022/10/19 15:07:45;;;;;;;0.75;0.52;;;;;;;;;;5045590;28;20045;-59
2022/10/19 15:10:18;;;;;;;1.50;0.40;;;;;;;;;;5045453;28;20048;-59
2022/10/19 15:12:44;;;;;;;2.03;0.68;;;;;;;;;;5042908;28;20472;-60
2022/10/19 15:15:18;;;;;;;1.70;1.02;;;;;;;;;;5045001;28;20072;-59